createdAt,value
2023-01-05T00:11:54.319Z,86.71
2023-01-05T02:29:52.730Z,87.16
2023-01-05T02:32:52.737Z,87.62
2023-01-05T02:36:28.696Z,87.76
2023-01-05T02:49:29.553Z,93.29
2023-01-05T02:58:38.072Z,94.50
2023-01-05T03:01:30.336Z,93.52
2023-01-05T03:04:41.178Z,92.87
2023-01-05T03:30:06.593Z,91.05
2023-01-05T04:17:45.786Z,90.68
2023-01-05T04:24:13.726Z,90.07
2023-01-05T04:26:53.197Z,90.95
2023-01-05T04:29:35.575Z,90.99
2023-01-05T04:32:22.600Z,90.54
2023-01-05T04:35:10.852Z,90.68
2023-01-05T04:37:53.746Z,90.36
2023-01-05T04:40:34.631Z,90.79
2023-01-05T04:43:24.183Z,90.86
2023-01-05T04:46:18.139Z,90.98
2023-01-05T04:48:51.423Z,90.97
2023-01-05T04:54:51.249Z,91.09
2023-01-05T04:57:26.115Z,90.71
2023-01-05T05:00:37.963Z,91.02
2023-01-05T05:03:15.260Z,91.62
2023-01-05T05:08:51.561Z,92.15
2023-01-05T05:11:29.779Z,92.29
2023-01-05T05:16:48.019Z,92.84
2023-01-05T05:22:04.802Z,94.34
2023-01-05T05:30:34.068Z,95.17
2023-01-05T05:33:06.472Z,95.41
2023-01-05T05:35:48.481Z,94.93
2023-01-05T05:38:38.805Z,95.81
2023-01-05T05:41:10.710Z,96.08
2023-01-05T05:43:53.643Z,95.66
2023-01-05T05:46:49.745Z,96.13
2023-01-05T05:55:43.715Z,96.37
2023-01-05T05:58:14.595Z,95.77
2023-01-05T06:00:50.009Z,95.38
2023-01-05T06:03:21.616Z,95.49
2023-01-05T06:05:58.095Z,95.18
2023-01-05T06:08:33.037Z,95.37
2023-01-05T06:11:03.888Z,95.19
2023-01-05T06:13:31.180Z,95.05
2023-01-05T06:16:00.529Z,94.89
2023-01-05T06:18:29.018Z,95.03
2023-01-05T06:21:02.131Z,94.75
2023-01-05T06:23:30.648Z,94.48
2023-01-05T06:25:58.277Z,94.54
2023-01-05T06:28:27.001Z,94.95
2023-01-05T06:30:56.371Z,95.14
2023-01-05T06:33:24.121Z,94.90
2023-01-05T06:35:51.326Z,94.63
2023-01-05T06:38:22.952Z,94.69
2023-01-05T06:40:50.761Z,94.27
2023-01-05T06:43:17.738Z,94.49
2023-01-05T06:45:49.727Z,94.74
2023-01-05T06:48:19.659Z,94.44
2023-01-05T06:50:55.342Z,94.45
2023-01-05T06:53:30.670Z,94.74
2023-01-05T06:56:01.977Z,95.01
2023-01-05T06:58:30.283Z,94.78
2023-01-05T07:00:57.620Z,94.71
2023-01-05T07:03:24.725Z,94.48
2023-01-05T07:05:52.176Z,94.31
2023-01-05T07:08:23.329Z,94.56
2023-01-05T07:11:05.042Z,94.09
2023-01-05T07:13:54.310Z,94.13
2023-01-05T07:20:00.613Z,93.64
2023-01-05T07:25:09.667Z,93.31
2023-01-05T07:27:59.240Z,92.79
2023-01-05T07:30:30.093Z,93.12
2023-01-05T07:33:00.627Z,92.72
2023-01-05T07:38:59.560Z,92.21
2023-01-05T07:41:37.607Z,92.19
2023-01-05T07:44:08.749Z,91.75
2023-01-05T07:46:49.364Z,92.00
2023-01-05T07:49:17.329Z,91.81
2023-01-05T07:52:04.258Z,91.68
2023-01-05T07:57:29.158Z,92.29
2023-01-05T07:59:59.067Z,92.61
2023-01-05T08:02:35.688Z,92.42
2023-01-05T08:05:25.514Z,92.15
2023-01-05T08:08:03.990Z,92.64
2023-01-05T08:10:33.830Z,92.85
2023-01-05T08:13:23.415Z,93.06
2023-01-05T08:16:03.570Z,92.81
2023-01-05T08:21:53.756Z,92.68
2023-01-05T08:24:38.133Z,93.02
2023-01-05T08:30:07.606Z,94.02
2023-01-05T08:32:35.912Z,94.06
2023-01-05T08:35:11.172Z,93.75
2023-01-05T08:37:48.472Z,94.39
2023-01-05T08:40:32.022Z,94.40
2023-01-05T08:43:11.227Z,93.90
2023-01-05T08:45:47.441Z,94.13
2023-01-05T08:55:00.780Z,94.01
2023-01-05T08:57:29.216Z,93.89
2023-01-05T09:00:00.789Z,94.26
2023-01-05T09:02:29.971Z,94.82
2023-01-05T09:04:57.261Z,94.17
2023-01-05T09:07:24.683Z,94.53
2023-01-05T09:09:51.679Z,94.29
2023-01-05T09:12:18.962Z,94.29
2023-01-05T09:14:47.791Z,94.12
2023-01-05T09:17:14.912Z,93.78
2023-01-05T09:19:45.107Z,93.91
2023-01-05T09:22:12.140Z,93.62
2023-01-05T09:24:39.612Z,93.04
2023-01-05T09:27:09.317Z,92.86
2023-01-05T09:29:36.332Z,93.32
2023-01-05T09:32:05.136Z,93.21
2023-01-05T09:34:32.254Z,92.96
2023-01-05T09:37:00.879Z,92.76
2023-01-05T09:39:27.993Z,92.85
2023-01-05T09:41:55.693Z,92.38
2023-01-05T09:44:27.867Z,93.24
2023-01-05T09:46:55.280Z,92.46
2023-01-05T09:49:24.502Z,92.36
2023-01-05T09:51:52.300Z,92.14
2023-01-05T09:54:19.418Z,91.75
2023-01-05T09:59:34.413Z,92.14
2023-01-05T10:02:02.663Z,91.78
2023-01-05T10:04:33.147Z,91.48
2023-01-05T10:07:03.969Z,91.51
2023-01-05T10:09:31.920Z,90.99
2023-01-05T10:12:18.512Z,90.74
2023-01-05T10:14:51.723Z,90.59
2023-01-05T10:17:40.964Z,90.43
2023-01-05T10:20:24.934Z,90.12
2023-01-05T10:23:06.761Z,89.66
2023-01-05T10:25:59.907Z,89.81
2023-01-05T10:28:45.604Z,89.14
2023-01-05T10:31:12.498Z,89.24
2023-01-05T10:33:52.156Z,89.14
2023-01-05T10:39:34.423Z,88.99
2023-01-05T10:42:27.673Z,88.95
2023-01-05T10:44:54.608Z,88.61
2023-01-05T10:47:22.042Z,88.78
2023-01-05T10:49:48.961Z,88.45
2023-01-05T10:52:16.479Z,88.62
2023-01-05T10:54:44.349Z,88.39
2023-01-05T10:57:35.958Z,88.48
2023-01-05T11:00:14.571Z,88.02
2023-01-05T11:02:51.502Z,88.46
2023-01-05T11:05:31.914Z,88.51
2023-01-05T11:08:02.344Z,88.57
2023-01-05T11:10:30.216Z,88.60
2023-01-05T11:13:04.381Z,88.53
2023-01-05T11:15:31.805Z,88.28
2023-01-05T11:17:58.644Z,88.25
2023-01-05T11:20:28.488Z,88.61
2023-01-05T11:22:55.580Z,88.09
2023-01-05T11:25:28.799Z,88.24
2023-01-05T11:28:05.607Z,87.90
2023-01-05T11:30:33.673Z,87.47
2023-01-05T11:33:01.890Z,87.28
2023-01-05T11:35:32.697Z,87.26
2023-01-05T11:38:00.656Z,87.14
2023-01-05T11:40:34.422Z,87.29
2023-01-05T11:43:01.558Z,86.86
2023-01-05T11:45:36.512Z,86.88
2023-01-05T11:48:04.267Z,86.79
2023-01-05T11:50:31.622Z,86.72
2023-01-05T11:53:00.846Z,86.39
2023-01-05T11:55:30.402Z,86.88
2023-01-05T11:58:17.897Z,86.99
2023-01-05T12:00:58.025Z,86.60
2023-01-05T12:03:43.806Z,86.96
2023-01-05T12:06:30.115Z,86.58
2023-01-05T12:08:56.974Z,86.47
2023-01-05T12:11:23.940Z,86.60
2023-01-05T12:14:09.545Z,86.08
2023-01-05T12:16:46.752Z,85.95
2023-01-05T12:19:28.622Z,86.18
2023-01-05T12:22:02.439Z,86.32
2023-01-05T12:24:38.865Z,86.56
2023-01-05T12:27:15.916Z,86.57
2023-01-05T12:34:00.451Z,86.54
2023-01-05T12:35:39.254Z,86.14
2023-01-05T12:38:21.457Z,85.91
2023-01-05T12:40:48.415Z,85.89
2023-01-05T12:43:18.088Z,85.94
2023-01-05T12:45:51.106Z,85.96
2023-01-05T12:48:19.313Z,85.82
2023-01-05T12:51:04.681Z,84.68
2023-01-05T12:53:40.715Z,85.08
2023-01-05T12:56:21.677Z,84.68
2023-01-05T12:58:54.172Z,84.52
2023-01-05T13:01:25.923Z,83.91
2023-01-05T13:03:54.841Z,83.73
2023-01-05T13:06:24.804Z,83.56
2023-01-05T13:08:56.371Z,83.73
2023-01-05T13:11:34.930Z,83.78
2023-01-05T13:14:05.953Z,84.13
2023-01-05T13:16:32.790Z,84.62
2023-01-05T13:19:04.903Z,83.32
2023-01-05T13:21:31.850Z,83.30
2023-01-05T13:24:00.187Z,83.82
2023-01-05T13:26:27.040Z,83.85
2023-01-05T13:28:54.155Z,83.43
2023-01-05T13:31:33.415Z,83.89
2023-01-05T13:34:03.181Z,82.23
2023-01-05T13:36:48.930Z,82.08
2023-01-05T13:39:35.491Z,82.45
2023-01-05T13:42:02.274Z,82.95
2023-01-05T13:44:31.766Z,82.67
2023-01-05T13:47:10.967Z,82.63
2023-01-05T13:49:57.632Z,82.86
2023-01-05T13:52:32.093Z,83.06
2023-01-05T13:55:02.510Z,82.51
2023-01-05T13:57:37.701Z,82.62
2023-01-05T14:00:11.013Z,82.88
2023-01-05T14:02:43.161Z,82.69
2023-01-05T14:05:16.272Z,82.26
2023-01-05T14:07:43.127Z,82.11
2023-01-05T14:10:29.163Z,80.38
2023-01-05T14:12:56.055Z,81.24
2023-01-05T14:15:37.782Z,81.29
2023-01-05T14:18:08.489Z,81.01
2023-01-05T14:20:35.378Z,80.44
2023-01-05T14:23:03.089Z,80.09
2023-01-05T14:25:39.438Z,80.49
2023-01-05T14:28:24.824Z,79.90
2023-01-05T14:30:52.012Z,80.53
2023-01-05T14:33:19.369Z,80.61
2023-01-05T14:35:46.255Z,81.01
2023-01-05T14:38:23.258Z,80.33
2023-01-05T14:40:55.954Z,79.76
2023-01-05T14:43:25.325Z,80.15
2023-01-05T14:46:04.571Z,80.10
2023-01-05T14:48:40.602Z,80.13
2023-01-05T14:51:10.455Z,80.04
2023-01-05T14:53:38.237Z,80.13
2023-01-05T14:56:05.133Z,80.32
2023-01-05T14:58:38.108Z,80.11
2023-01-05T15:01:17.523Z,79.70
2023-01-05T15:04:03.259Z,79.97
2023-01-05T15:06:48.980Z,80.52
2023-01-05T15:09:35.003Z,77.61
2023-01-05T15:12:09.509Z,78.86
2023-01-05T15:14:55.073Z,79.03
2023-01-05T15:17:27.802Z,79.22
2023-01-05T15:19:57.674Z,80.02
2023-01-05T15:22:37.708Z,80.01
2023-01-05T15:25:08.543Z,80.08
2023-01-05T15:27:41.569Z,78.96
2023-01-05T15:30:18.336Z,79.99
2023-01-05T15:32:45.467Z,80.11
2023-01-05T15:35:14.857Z,80.53
2023-01-05T15:37:42.028Z,80.85
2023-01-05T15:40:14.972Z,80.57
2023-01-05T15:42:45.408Z,80.67
2023-01-05T15:45:18.562Z,80.15
2023-01-05T15:47:45.354Z,80.38
2023-01-05T15:50:30.077Z,80.29
2023-01-05T15:52:58.237Z,78.90
2023-01-05T15:55:25.068Z,79.15
2023-01-05T15:57:59.111Z,79.65
2023-01-05T16:00:30.752Z,80.04
2023-01-05T16:02:59.791Z,79.73
2023-01-05T16:05:27.379Z,80.04
2023-01-05T16:07:58.434Z,79.84
2023-01-05T16:10:39.658Z,79.62
2023-01-05T16:13:10.655Z,79.59
2023-01-05T16:15:37.719Z,79.16
2023-01-05T16:18:05.836Z,79.00
2023-01-05T16:20:32.740Z,78.75
2023-01-05T16:23:08.389Z,78.84
2023-01-05T16:25:54.890Z,78.70
2023-01-05T16:28:22.351Z,79.43
2023-01-05T16:30:49.409Z,79.03
2023-01-05T16:33:36.067Z,79.28
2023-01-05T16:36:07.224Z,79.39
2023-01-05T16:38:34.344Z,79.32
2023-01-05T16:41:04.216Z,79.44
2023-01-05T16:43:40.255Z,79.26
2023-01-05T16:46:10.279Z,79.57
2023-01-05T16:48:39.040Z,79.61
2023-01-05T16:51:07.429Z,79.93
2023-01-05T16:53:40.325Z,79.61
2023-01-05T16:56:18.337Z,79.94
2023-01-05T16:58:45.301Z,79.66
2023-01-05T17:01:15.912Z,79.31
2023-01-05T17:03:43.020Z,78.97
2023-01-05T17:06:29.206Z,79.42
2023-01-05T17:08:56.807Z,79.80
2023-01-05T17:11:23.623Z,79.83
2023-01-05T17:13:52.602Z,80.23
2023-01-05T17:16:19.931Z,80.75
2023-01-05T17:18:47.190Z,80.50
2023-01-05T17:21:18.007Z,80.53
2023-01-05T17:23:49.023Z,80.24
2023-01-05T17:26:26.614Z,80.24
2023-01-05T17:28:56.209Z,79.90
2023-01-05T17:31:22.991Z,79.96
2023-01-05T17:33:49.851Z,79.52
2023-01-05T17:36:18.362Z,79.37
2023-01-05T17:38:46.664Z,79.31
2023-01-05T17:41:16.025Z,78.93
2023-01-05T17:43:44.985Z,79.35
2023-01-05T17:46:22.509Z,79.67
2023-01-05T17:48:49.400Z,79.81
2023-01-05T17:51:16.242Z,80.13
2023-01-05T17:53:44.363Z,79.36
2023-01-05T17:56:13.574Z,79.48
2023-01-05T17:58:40.712Z,79.63
2023-01-05T18:01:07.593Z,79.69
2023-01-05T18:03:34.539Z,78.96
2023-01-05T18:06:01.397Z,79.27
2023-01-05T18:08:28.289Z,79.54
2023-01-05T18:10:55.084Z,79.51
2023-01-05T18:13:22.863Z,79.45
2023-01-05T18:15:50.781Z,79.49
2023-01-05T18:18:18.301Z,79.47
2023-01-05T18:20:45.143Z,79.76
2023-01-05T18:23:12.086Z,80.02
2023-01-05T18:25:39.117Z,80.04
2023-01-05T18:28:06.184Z,80.03
2023-01-05T18:30:33.297Z,79.76
2023-01-05T18:33:00.119Z,80.07
2023-01-05T18:35:27.056Z,80.13
2023-01-05T18:37:58.173Z,80.15
2023-01-05T18:40:25.093Z,80.25
2023-01-05T18:42:52.212Z,80.31
2023-01-05T18:45:31.776Z,80.31
2023-01-05T18:47:59.173Z,80.81
2023-01-05T18:50:28.357Z,80.52
2023-01-05T18:52:55.305Z,80.79
2023-01-05T18:55:22.165Z,80.94
2023-01-05T18:57:49.110Z,80.96
2023-01-05T19:00:16.049Z,81.17
2023-01-05T19:02:42.892Z,81.20
2023-01-05T19:05:10.258Z,81.23
2023-01-05T19:07:39.008Z,81.27
2023-01-05T19:10:06.326Z,81.41
2023-01-05T19:12:33.289Z,81.45
2023-01-05T19:15:00.211Z,81.44
2023-01-05T19:17:27.076Z,81.57
2023-01-05T19:19:55.251Z,81.64
2023-01-05T19:22:22.044Z,81.80
2023-01-05T19:24:48.820Z,81.71
2023-01-05T19:27:15.715Z,82.12
2023-01-05T19:29:42.517Z,82.19
2023-01-05T19:32:09.339Z,82.37
2023-01-05T19:34:36.388Z,82.64
2023-01-05T19:37:05.719Z,82.85
2023-01-05T19:39:32.594Z,82.46
2023-01-05T19:41:59.550Z,82.33
2023-01-05T19:44:26.510Z,82.10
2023-01-05T19:46:54.333Z,82.22
2023-01-05T19:49:22.212Z,82.00
2023-01-05T19:51:49.872Z,81.89
2023-01-05T19:54:16.818Z,81.81
2023-01-05T19:56:46.005Z,81.85
2023-01-05T19:59:16.739Z,81.47
2023-01-05T20:01:43.722Z,81.95
2023-01-05T20:04:10.646Z,82.00
2023-01-05T20:06:38.187Z,82.01
2023-01-05T20:09:07.505Z,81.98
2023-01-05T20:11:41.086Z,81.81
2023-01-05T20:14:15.036Z,81.81
2023-01-05T20:16:42.569Z,81.68
2023-01-05T20:19:10.728Z,81.59
2023-01-05T20:21:37.571Z,81.21
2023-01-05T20:24:07.297Z,81.68
2023-01-05T20:26:34.308Z,81.17
2023-01-05T20:29:01.500Z,80.96
2023-01-05T20:31:29.856Z,81.04
2023-01-05T20:33:57.342Z,81.29
2023-01-05T20:36:24.520Z,81.30
2023-01-05T20:38:54.061Z,80.93
2023-01-05T20:41:20.988Z,81.14
2023-01-05T20:43:48.150Z,81.18
2023-01-05T20:46:15.881Z,81.22
2023-01-05T20:48:42.982Z,81.13
2023-01-05T20:51:10.702Z,81.11
2023-01-05T20:53:43.224Z,81.03
2023-01-05T20:56:12.850Z,81.04
2023-01-05T20:58:40.648Z,80.87
2023-01-05T21:01:11.686Z,81.29
2023-01-05T21:03:38.923Z,81.23
2023-01-05T21:06:06.227Z,81.17
2023-01-05T21:08:35.699Z,81.35
2023-01-05T21:11:03.183Z,81.29
2023-01-05T21:13:32.160Z,81.50
2023-01-05T21:16:00.812Z,81.10
2023-01-05T21:18:28.019Z,81.44
2023-01-05T21:20:55.285Z,81.18
2023-01-05T21:23:22.436Z,81.49
2023-01-05T21:26:06.248Z,81.74
2023-01-05T21:28:39.619Z,81.17
2023-01-05T21:31:08.472Z,81.22
2023-01-05T21:33:36.460Z,81.15
2023-01-05T21:36:04.055Z,80.84
2023-01-05T21:39:00.812Z,80.59
2023-01-05T21:41:38.770Z,80.85
2023-01-05T21:44:08.169Z,80.90
2023-01-05T21:46:35.104Z,80.90
2023-01-05T21:49:01.982Z,80.84
2023-01-05T21:51:47.583Z,81.04
2023-01-05T21:54:34.423Z,81.06
2023-01-05T21:57:01.419Z,81.22
2023-01-05T21:59:28.396Z,81.57
2023-01-05T22:01:55.548Z,81.44
2023-01-05T22:04:25.568Z,81.32
2023-01-05T22:06:52.672Z,80.97
2023-01-05T22:09:19.557Z,81.19
2023-01-05T22:11:46.432Z,81.04
2023-01-05T22:14:13.261Z,81.02
2023-01-05T22:16:40.351Z,80.84
2023-01-05T22:19:07.324Z,80.87
2023-01-05T22:21:34.220Z,80.60
2023-01-05T22:24:02.430Z,80.94
2023-01-05T22:26:29.321Z,80.81
2023-01-05T22:28:56.201Z,80.90
2023-01-05T22:31:27.242Z,80.87
2023-01-05T22:33:55.088Z,80.59
2023-01-05T22:36:22.332Z,80.88
2023-01-05T22:38:49.646Z,80.61
2023-01-05T22:41:19.294Z,80.53
2023-01-05T22:43:48.826Z,80.56
2023-01-05T22:46:16.946Z,79.24
2023-01-05T22:48:44.179Z,79.71
2023-01-05T22:51:13.633Z,80.01
2023-01-05T22:53:40.612Z,79.25
2023-01-05T22:56:08.386Z,80.19
2023-01-05T22:58:35.379Z,79.51
2023-01-05T23:01:08.868Z,80.23
2023-01-05T23:03:35.816Z,79.52
2023-01-05T23:06:02.704Z,80.08
2023-01-05T23:08:29.836Z,80.10
2023-01-05T23:11:00.640Z,80.10
2023-01-05T23:13:27.716Z,80.18
2023-01-05T23:15:55.063Z,79.72
2023-01-05T23:18:22.179Z,79.81
2023-01-05T23:20:55.679Z,79.33
2023-01-05T23:23:23.180Z,80.00
2023-01-05T23:25:55.266Z,79.36
2023-01-05T23:28:22.563Z,79.68
2023-01-05T23:30:50.388Z,79.32
2023-01-05T23:33:17.886Z,79.86
2023-01-05T23:35:44.796Z,79.98
2023-01-05T23:38:11.757Z,79.50
2023-01-05T23:40:42.617Z,79.92
2023-01-05T23:43:13.158Z,80.00
2023-01-05T23:45:42.774Z,79.97
2023-01-05T23:48:09.828Z,79.51
2023-01-05T23:50:36.837Z,79.53
2023-01-05T23:53:04.100Z,79.22
2023-01-05T23:55:31.032Z,79.62
2023-01-05T23:57:58.255Z,79.76
